AirNav   Bose Proflight Series 2 Wireless viation Headset
 
 831 users online  

00OI Miami Valley Hospital Heliport
Dayton, Ohio, USA

GOING TO DAYTON?


FAA INFORMATION EFFECTIVE 10 OCTOBER 2019

Location

FAA Identifier: 00OI
Lat/Long: 39-44-41.7082N 084-11-14.1406W
39-44.695137N 084-11.235677W
39.7449189,-84.1872613
(estimated)
Elevation: 847 ft. / 258 m (estimated)
Variation: 06W (2015)
Time zone: UTC -4 (UTC -5 during Standard Time)
Zip code: 45409

Heliport Operations

Heliport use: Private use, MEDICAL USE.
Activation date: 12/1983
Control tower: no
ARTCC: INDIANAPOLIS CENTER
FSS: DAYTON FLIGHT SERVICE STATION
Attendance: CONTINUOUS
Wind indicator: yes
Segmented circle: no
Beacon: white-green-yellow (heliport)
Operates sunset to sunrise.

Heliport Communications

UNICOM: 123.05
WX ASOS at MGY (10 nm S): 118.375 (937-885-2171)
WX AWOS-3 at I19 (10 nm E): 118.525 (937-372-4668)
WX ASOS at DAY (10 nm N): PHONE 937-415-6819
WX AWOS-3 at MWO (16 nm SW): 120.025 (513-422-3505)
WX AWOS-3PT at SGH (17 nm E): 134.975
WX AWOS-3 at I68 (17 nm S): 120.55 (513-934-5500)

Nearby radio navigation aids

VOR radial/distance  VOR name  Freq  Var
SGHr255/16.7SPRINGFIELD VOR/DME113.2004W
DQNr150/18.9DAYTON VOR/DME114.5001W
MXQr321/26.0MIDWEST VOR/DME112.9004W
RODr196/33.2ROSEWOOD VORTAC117.5005W

 
NDB name  Hdg/Dist  Freq  Var  ID
BRUNY138/9.231506WAT .- -
ONIDA036/11.822304WMW -- .--
HOOK FIELD043/19.023904WHKF .... -.- ..-.
CLARK COUNTY252/20.334104WCCJ -.-. -.-. .---
CINCINNATI015/35.833504WLUK .-.. ..- -.-
COURT HOUSE289/37.741406WCSS -.-. ... ...

Heliport Services

Runway Information

Helipad H1

Dimensions: 42 x 42 ft. / 13 x 13 m
Surface: concrete
ROOFTOP.
Latitude: 39-44.695137N
Longitude: 084-11.235677W
Elevation: 847.0 ft.
Traffic pattern: leftleft

Heliport Ownership and Management from official FAA records

Ownership: Privately-owned
Owner: MIAMI VALLEY HOSPITAL
ONE WYOMING STREET
DAYTON, OH 45409
Phone 513-220-2221
Manager: CANDACE SKIDMORE
ONE WYOMING STREET
DAYTON, OH 45409
Phone 513-220-2044
BETH CALCIDISE 937-208-4347 ADDITIONAL CONTACT: KEITH SHIVERS 1385 BOURDEAUX WAY DAYTON, OH 48484

Heliport Operational Statistics

Aircraft based on the field: 1
Helicopters: 1
    

Additional Remarks

FOR CD CTC COLUMBUS APCH AT 614-338-8537

Instrument Procedures

There are no published instrument procedures at 00OI.

Some nearby airports with instrument procedures:

KFFO - Wright-Patterson Air Force Base (8 nm NE)
KMGY - Dayton-Wright Brothers Airport (10 nm S)
I19 - Greene County-Lewis A Jackson Regional Airport (10 nm E)
KDAY - James M Cox Dayton International Airport (10 nm N)
3I7 - Dayton-Phillipsburg Airport (14 nm NW)
KMWO - Middletown Regional Airport/Hook Field (16 nm SW)
KSGH - Springfield-Beckley Municipal Airport (17 nm E)
I68 - Warren County Airport/John Lane Field (17 nm S)
 
Loc | Ops | Rwys | IFR | FBO | Links
Com | Nav | Svcs | Stats | Notes
Area around 00OI (Miami Valley Hospital Heliport)
 
Road maps at: MapQuest Bing Google
 
Aerial photo
No photo
 
Sectional chart

 
Airport distance calculator
Flying to Miami Valley Hospital Heliport? Find the distance to fly.

From to 00OI

Sunrise and sunset
Times for 19-Oct-2019
 Local
(UTC-4)
 Zulu
(UTC)
Morning civil twilight07:2511:25
Sunrise07:5211:52
Sunset18:5122:51
Evening civil twilight19:1923:19

Current date and time
Zulu (UTC)  20-Oct-2019 01:51:24
Local (UTC-4)  19-Oct-2019 21:51:24
 
METAR
KFFO 
8nm NE 
200056Z 12006KT 10SM FEW210 13/06 A2982 RMK AO2A SLP103 T01340058
KMGY 
9nm S 
200053Z AUTO 11006KT 10SM CLR 16/06 A2981 RMK AO2 SLP092 T01610056
KDAY 
9nm N 
200056Z 14007KT 10SM BKN210 14/06 A2982 RMK AO2 SLP098 T01390056
KMWO 
16nm SW 
200135Z AUTO 00000KT 10SM CLR 10/08 A2983 RMK AO2 T00990076
KI68 
17nm S 
200135Z AUTO 00000KT 10SM CLR 14/07 A2983 RMK AO1 T01420066
KSGH 
18nm E 
200056Z AUTO 13007KT 10SM CLR 12/07 A2983 RMK AO2 SLP107 T01220067
TAF
KFFO 
8nm NE 
191900Z 1919/2101 15006KT 9999 FEW220 QNH2985INS BECMG 2003/2004 18006KT 9999 SCT030 BKN050 QNH2982INS BECMG 2011/2012 20006KT 9999 BKN020 OVC030 QNH2986INS BECMG 2019/2020 20006KT 9999 FEW030 QNH2988INS TX21/2019Z TN13/2012Z
KDAY 
9nm N 
191734Z 1918/2018 16007KT P6SM FEW250 FM200600 16005KT P6SM BKN090 FM201400 18006KT P6SM BKN050
NOTAMs
Click for the latest NOTAMs
NOTAMs are issued by the DoD/FAA and will open in a separate window not controlled by AirNav.

 

 
 

Would you like to see your business listed on this page?

 If your business provides an interesting product or service to pilots, flight crews, aircraft, or users of the Miami Valley Hospital Heliport, you should consider listing it here.  To start the listing process, click on the button below
 
Add a business
 

Other Pages about Miami Valley Hospital Heliport

Update a link
 
Copyright © AirNav, LLC. All rights reserved. Privacy Policy  Contact